Time;durP1;ratioP1;P1;durP2;ratioP2;P2;SDS_P1;SDS_P2;PMS_P1;PMS_P2;Temp;Humidity;BMP_temperature;BMP_pressure;BME280_temperature;BME280_humidity;BME280_pressure;Samples;Min_cycle;Max_cycle;Signal;HPM_P1;HPM_P2
2022/11/22 00:01:03;;;;;;;20.00;4.75;;;7.40;99.90;;;;;;5056346;28;20477;-78
2022/11/22 00:03:29;;;;;;;19.92;3.78;;;7.40;99.90;;;;;;5055600;28;20511;-78
2022/11/22 00:05:55;;;;;;;29.27;4.78;;;7.40;99.90;;;;;;5055559;28;20029;-78
2022/11/22 00:08:21;;;;;;;22.70;4.15;;;7.50;99.90;;;;;;5055499;28;20029;-78
2022/11/22 00:10:48;;;;;;;31.02;5.22;;;7.50;99.90;;;;;;5054278;28;20452;-78
2022/11/22 00:13:18;;;;;;;25.08;3.55;;;7.30;99.90;;;;;;5054390;28;20465;-78
2022/11/22 00:15:43;;;;;;;22.08;4.15;;;7.40;99.90;;;;;;5055286;28;20029;-78
2022/11/22 00:18:10;;;;;;;21.65;3.67;;;7.40;99.90;;;;;;5055534;28;20074;-78
2022/11/22 00:20:36;;;;;;;26.23;4.55;;;7.40;99.90;;;;;;5054210;28;20421;-77
2022/11/22 00:23:02;;;;;;;21.52;3.22;;;7.40;99.90;;;;;;5055961;28;20021;-77
2022/11/22 00:25:28;;;;;;;25.30;4.38;;;7.30;99.90;;;;;;5054580;28;20040;-77
2022/11/22 00:27:54;;;;;;;22.10;4.22;;;7.30;99.90;;;;;;5055232;28;20017;-77
2022/11/22 00:30:20;;;;;;;19.65;3.88;;;7.30;99.90;;;;;;5054965;28;20436;-78
2022/11/22 00:32:46;;;;;;;21.92;3.75;;;7.20;99.90;;;;;;5055362;28;20056;-78
2022/11/22 00:35:12;;;;;;;26.33;4.50;;;7.30;99.90;;;;;;5041190;28;20029;-78
2022/11/22 00:37:38;;;;;;;19.70;4.13;;;7.20;99.90;;;;;;5054038;28;20086;-78
2022/11/22 00:40:05;;;;;;;24.23;5.45;;;7.20;99.90;;;;;;5055048;28;20420;-78
2022/11/22 00:42:30;;;;;;;17.50;3.53;;;7.20;99.90;;;;;;5054919;28;20359;-78
2022/11/22 00:44:56;;;;;;;18.05;4.55;;;7.20;99.90;;;;;;5054501;28;20128;-78
2022/11/22 00:47:22;;;;;;;24.50;3.80;;;7.10;99.90;;;;;;5054902;28;20035;-78
2022/11/22 00:49:48;;;;;;;23.95;3.95;;;7.10;99.90;;;;;;5054674;28;20033;-78
2022/11/22 00:52:14;;;;;;;24.08;4.07;;;7.10;99.90;;;;;;5053857;28;20444;-78
2022/11/22 00:54:40;;;;;;;25.42;4.53;;;7.20;99.90;;;;;;5036739;28;20056;-77
2022/11/22 00:57:06;;;;;;;20.60;4.47;;;7.00;99.90;;;;;;5054857;28;20108;-78
2022/11/22 00:59:32;;;;;;;16.58;4.13;;;6.90;99.90;;;;;;5053210;28;20049;-78
2022/11/22 01:01:57;;;;;;;25.25;4.07;;;6.90;99.90;;;;;;5054882;28;20025;-78
2022/11/22 01:04:23;;;;;;;16.52;3.42;;;6.90;99.90;;;;;;5053193;28;20025;-78
2022/11/22 01:06:49;;;;;;;26.20;4.47;;;6.90;99.90;;;;;;5054589;28;20040;-77
2022/11/22 01:09:21;;;;;;;26.00;3.97;;;7.00;99.90;;;;;;5052650;28;20033;-78
2022/11/22 01:11:46;;;;;;;23.98;3.30;;;7.00;99.90;;;;;;5054784;28;20029;-78
2022/11/22 01:14:13;;;;;;;16.60;4.50;;;7.00;99.90;;;;;;5053940;28;20428;-78
2022/11/22 01:16:39;;;;;;;21.63;3.83;;;6.90;99.90;;;;;;5054419;28;20032;-78
2022/11/22 01:19:04;;;;;;;28.80;4.35;;;6.80;99.90;;;;;;5054152;28;20029;-78
2022/11/22 01:21:30;;;;;;;18.75;3.90;;;6.80;99.90;;;;;;5054194;28;20025;-78
2022/11/22 01:23:56;;;;;;;22.45;4.50;;;6.80;99.90;;;;;;5054376;28;20029;-78
2022/11/22 01:26:22;;;;;;;15.05;3.05;;;6.90;99.90;;;;;;5053759;28;20021;-77
2022/11/22 01:28:47;;;;;;;22.85;4.60;;;6.80;99.90;;;;;;5053027;28;20473;-78
2022/11/22 01:31:13;;;;;;;16.52;3.40;;;6.80;99.90;;;;;;5053986;28;20036;-77
2022/11/22 01:33:39;;;;;;;22.17;4.32;;;6.70;99.90;;;;;;5053958;28;20025;-77
2022/11/22 01:36:04;;;;;;;25.38;4.03;;;6.80;99.90;;;;;;5052819;28;20091;-78
2022/11/22 01:38:30;;;;;;;25.42;4.20;;;6.80;99.90;;;;;;5053872;28;20029;-78
2022/11/22 01:40:56;;;;;;;30.88;4.28;;;6.80;99.90;;;;;;5053634;28;20087;-78
2022/11/22 01:43:25;;;;;;;23.65;4.32;;;6.80;99.90;;;;;;5052668;28;20032;-78
2022/11/22 01:45:55;;;;;;;24.52;3.30;;;6.70;99.90;;;;;;5053882;28;20041;-77
2022/11/22 01:48:30;;;;;;;18.27;3.33;;;6.70;99.90;;;;;;5052541;28;20103;-78
2022/11/22 01:51:02;;;;;;;18.52;3.00;;;6.70;99.90;;;;;;5052490;28;20060;-78
2022/11/22 01:53:33;;;;;;;16.98;3.08;;;6.70;99.90;;;;;;5068647;28;20033;-78
2022/11/22 01:56:03;;;;;;;25.25;3.53;;;6.60;99.90;;;;;;5073250;28;20043;-78
2022/11/22 01:58:32;;;;;;;11.88;3.78;;;6.60;99.90;;;;;;5073434;28;20043;-77
2022/11/22 02:00:59;;;;;;;18.92;3.55;;;6.50;99.90;;;;;;5072237;28;20020;-77
2022/11/22 02:03:27;;;;;;;21.58;4.55;;;6.60;99.90;;;;;;5073768;28;20029;-77
2022/11/22 02:05:53;;;;;;;19.40;3.75;;;6.50;99.90;;;;;;5073272;28;20078;-78
2022/11/22 02:08:41;;;;;;;26.80;4.10;;;6.50;99.90;;;;;;5073246;28;20460;-78
2022/11/22 02:11:10;;;;;;;12.07;2.88;;;6.50;99.90;;;;;;5071918;28;20077;-78
2022/11/22 02:13:42;;;;;;;25.38;4.18;;;6.40;99.90;;;;;;5073377;28;20059;-77
2022/11/22 02:16:10;;;;;;;21.90;3.50;;;6.50;99.90;;;;;;5073167;28;20174;-77
2022/11/22 02:18:36;;;;;;;20.55;2.88;;;6.40;99.90;;;;;;5073152;28;20072;-77
2022/11/22 02:21:03;;;;;;;20.52;3.08;;;6.40;99.90;;;;;;5072528;28;20537;-77
2022/11/22 02:23:29;;;;;;;18.90;3.20;;;6.30;99.90;;;;;;5073253;28;20025;-77
2022/11/22 02:25:59;;;;;;;25.88;3.90;;;6.20;99.90;;;;;;5072623;28;20387;-77
2022/11/22 02:28:29;;;;;;;24.33;4.25;;;6.30;99.90;;;;;;5072014;28;20020;-77
2022/11/22 02:30:55;;;;;;;35.13;4.35;;;6.30;99.90;;;;;;5073448;28;20469;-78
2022/11/22 02:33:20;;;;;;;11.80;2.25;;;6.30;99.90;;;;;;5073299;28;20052;-77
2022/11/22 02:35:46;;;;;;;20.45;3.78;;;6.30;99.90;;;;;;5073248;28;20115;-77
2022/11/22 02:38:33;;;;;;;21.42;3.97;;;6.20;99.90;;;;;;5071917;28;20044;-77
2022/11/22 02:41:05;;;;;;;25.08;4.22;;;6.30;99.90;;;;;;5072752;28;20046;-78
2022/11/22 02:43:39;;;;;;;19.60;3.05;;;6.20;99.90;;;;;;5071738;28;20491;-77
2022/11/22 02:46:06;;;;;;;22.70;3.67;;;6.20;99.90;;;;;;5072811;28;20028;-77
2022/11/22 02:48:32;;;;;;;21.27;2.83;;;6.20;99.90;;;;;;5072724;28;20512;-78
2022/11/22 02:50:58;;;;;;;25.73;5.13;;;6.10;99.90;;;;;;5072774;28;20464;-78
2022/11/22 02:53:24;;;;;;;19.52;3.10;;;6.10;99.90;;;;;;5072877;28;20037;-78
2022/11/22 02:55:50;;;;;;;24.05;3.38;;;6.00;99.90;;;;;;5072977;28;20024;-77
2022/11/22 02:58:16;;;;;;;15.50;4.15;;;6.10;99.90;;;;;;5072591;28;20033;-77
2022/11/22 03:00:42;;;;;;;19.88;3.42;;;6.00;99.90;;;;;;5072890;28;20032;-77
2022/11/22 03:03:08;;;;;;;20.58;3.15;;;6.00;99.90;;;;;;5071958;28;20035;-77
2022/11/22 03:05:33;;;;;;;16.65;3.53;;;6.00;99.90;;;;;;5073408;28;20028;-78
2022/11/22 03:07:59;;;;;;;25.55;3.58;;;6.00;99.90;;;;;;5072477;28;20100;-77
2022/11/22 03:10:25;;;;;;;14.13;2.83;;;6.00;99.90;;;;;;5072884;28;20475;-77
2022/11/22 03:12:51;;;;;;;12.57;2.38;;;5.90;99.90;;;;;;5072564;28;20025;-78
2022/11/22 03:15:16;;;;;;;15.60;2.70;;;5.90;99.90;;;;;;5072400;28;20469;-77
2022/11/22 03:17:42;;;;;;;14.98;3.20;;;5.90;99.90;;;;;;5072251;28;20135;-77
2022/11/22 03:20:08;;;;;;;16.92;2.55;;;5.80;99.90;;;;;;5072534;28;20094;-77
2022/11/22 03:22:34;;;;;;;14.60;3.22;;;5.80;99.90;;;;;;5070514;28;20028;-78
2022/11/22 03:25:00;;;;;;;14.80;2.55;;;5.80;99.90;;;;;;5072496;28;20028;-78
2022/11/22 03:27:26;;;;;;;20.83;3.92;;;5.80;99.90;;;;;;5054504;28;20378;-77
2022/11/22 03:29:52;;;;;;;15.48;3.13;;;5.90;99.90;;;;;;5072537;28;20028;-77
2022/11/22 03:32:17;;;;;;;12.52;2.40;;;5.90;99.90;;;;;;5073879;28;20029;-78
2022/11/22 03:34:43;;;;;;;21.45;2.85;;;5.80;99.90;;;;;;5076382;28;20027;-77
2022/11/22 03:37:09;;;;;;;13.65;2.75;;;5.70;99.90;;;;;;5074394;28;20423;-78
2022/11/22 03:39:34;;;;;;;18.55;2.80;;;5.70;99.90;;;;;;5076158;28;20078;-77
2022/11/22 03:42:00;;;;;;;15.85;2.58;;;5.70;99.90;;;;;;5060855;28;20037;-77
2022/11/22 03:44:26;;;;;;;21.25;3.10;;;5.70;99.90;;;;;;5058353;28;20032;-77
2022/11/22 03:46:51;;;;;;;17.23;2.58;;;5.70;99.90;;;;;;5076306;28;20216;-77
2022/11/22 03:49:17;;;;;;;15.20;2.72;;;5.60;99.90;;;;;;5075917;28;20020;-77
2022/11/22 03:51:43;;;;;;;18.27;3.17;;;5.60;99.90;;;;;;5074517;28;20529;-77
2022/11/22 03:54:09;;;;;;;22.10;3.00;;;5.60;99.90;;;;;;5075896;28;20029;-77
2022/11/22 03:56:35;;;;;;;20.23;2.60;;;5.70;99.90;;;;;;5076297;28;20027;-78
2022/11/22 03:59:00;;;;;;;4.80;2.25;;;5.70;99.90;;;;;;5075612;28;20040;-77
2022/11/22 04:01:26;;;;;;;9.43;2.17;;;5.70;99.90;;;;;;5075886;28;20091;-77
2022/11/22 04:03:52;;;;;;;9.85;2.35;;;5.60;99.90;;;;;;5074573;28;20039;-77
2022/11/22 04:06:18;;;;;;;12.73;2.67;;;5.60;99.90;;;;;;5075535;28;20040;-77
2022/11/22 04:08:43;;;;;;;13.88;2.55;;;5.60;99.90;;;;;;5074412;28;20103;-77
2022/11/22 04:11:09;;;;;;;10.85;2.28;;;5.60;99.90;;;;;;5075779;28;20074;-77
2022/11/22 04:16:19;;;;;;;12.63;3.42;;;5.60;99.90;;;;;;5075704;28;20132;-77
2022/11/22 04:18:45;;;;;;;12.23;2.15;;;5.60;99.90;;;;;;5075114;28;20104;-77
2022/11/22 04:26:39;;;;;;;9.18;1.70;;;5.60;99.90;;;;;;5075808;28;20103;-77
2022/11/22 04:29:05;;;;;;;21.02;3.30;;;5.60;99.90;;;;;;5075437;28;20162;-78
2022/11/22 04:34:15;;;;;;;13.23;2.67;;;5.70;99.90;;;;;;5075653;28;20401;-77
2022/11/22 04:36:41;;;;;;;14.93;2.83;;;5.70;99.90;;;;;;5075271;28;20029;-77
2022/11/22 04:39:07;;;;;;;17.00;2.65;;;5.80;99.90;;;;;;5075296;28;20465;-77
2022/11/22 04:41:32;;;;;;;9.38;2.47;;;5.90;99.90;;;;;;5074458;28;20035;-77
2022/11/22 04:46:42;;;;;;;13.70;2.92;;;6.00;99.90;;;;;;5075162;28;20028;-77
2022/11/22 04:49:08;;;;;;;13.95;2.45;;;5.90;99.90;;;;;;5075170;28;20534;-77
2022/11/22 04:54:18;;;;;;;15.13;3.53;;;6.00;99.90;;;;;;5075893;28;20028;-77
2022/11/22 04:56:44;;;;;;;14.00;2.35;;;6.00;99.90;;;;;;5076117;28;20516;-77
2022/11/22 04:59:09;;;;;;;11.93;2.58;;;6.00;99.90;;;;;;5074305;28;20051;-77
2022/11/22 05:01:35;;;;;;;7.45;2.15;;;6.00;99.90;;;;;;5074809;28;20025;-77
2022/11/22 05:04:01;;;;;;;14.05;2.60;;;6.00;99.90;;;;;;5074466;28;20469;-77
2022/11/22 05:06:27;;;;;;;12.82;2.45;;;6.00;99.90;;;;;;5073566;28;20119;-77
2022/11/22 05:08:52;;;;;;;12.90;2.88;;;6.00;99.90;;;;;;5075226;28;20031;-77
2022/11/22 05:11:18;;;;;;;12.80;2.42;;;5.90;99.90;;;;;;5073652;28;20032;-77
2022/11/22 05:13:44;;;;;;;15.02;2.80;;;5.90;99.90;;;;;;5074625;28;20025;-77
2022/11/22 05:16:12;;;;;;;22.35;2.97;;;5.90;99.90;;;;;;5074850;28;20032;-77
2022/11/22 05:18:38;;;;;;;9.60;2.47;;;5.90;99.90;;;;;;5074153;28;20052;-77
2022/11/22 05:21:10;;;;;;;18.88;3.00;;;6.00;99.90;;;;;;5073237;28;20037;-77
2022/11/22 05:23:54;;;;;;;14.65;3.50;;;6.00;99.90;;;;;;5073250;28;20040;-77
2022/11/22 05:26:31;;;;;;;13.98;2.80;;;6.00;99.90;;;;;;5074394;28;20068;-78
2022/11/22 05:28:58;;;;;;;11.27;2.13;;;6.00;99.90;;;;;;5072991;28;20028;-78
2022/11/22 05:31:26;;;;;;;10.88;2.25;;;6.10;99.90;;;;;;5074392;28;20056;-77
2022/11/22 05:33:54;;;;;;;23.13;3.50;;;6.00;99.90;;;;;;5073906;28;20119;-78
2022/11/22 05:36:20;;;;;;;9.70;2.47;;;6.10;99.90;;;;;;5073939;28;20074;-77
2022/11/22 05:38:47;;;;;;;15.10;2.95;;;6.00;99.90;;;;;;5073915;28;20037;-78
2022/11/22 05:41:14;;;;;;;14.60;2.28;;;6.20;99.90;;;;;;5075152;28;20119;-77
2022/11/22 05:43:40;;;;;;;16.27;2.80;;;6.10;99.90;;;;;;5074125;28;20047;-77
2022/11/22 05:46:06;;;;;;;14.40;2.92;;;6.10;99.90;;;;;;5073595;28;20029;-77
2022/11/22 05:48:32;;;;;;;12.68;2.83;;;6.00;99.90;;;;;;5074168;28;20048;-77
2022/11/22 05:50:57;;;;;;;12.40;2.53;;;6.10;99.90;;;;;;5073800;28;20146;-77
2022/11/22 05:53:23;;;;;;;16.48;3.42;;;6.10;99.90;;;;;;5074169;28;20064;-77
2022/11/22 05:55:49;;;;;;;13.13;2.28;;;6.10;99.90;;;;;;5073574;28;20033;-77
2022/11/22 05:58:15;;;;;;;13.32;2.50;;;6.10;99.90;;;;;;5073662;28;20016;-77
2022/11/22 06:00:40;;;;;;;10.32;3.00;;;6.10;99.90;;;;;;5073711;28;20024;-77
2022/11/22 06:03:06;;;;;;;14.68;3.15;;;6.10;99.90;;;;;;5073364;28;20377;-77
2022/11/22 06:05:32;;;;;;;16.63;1.88;;;6.10;99.90;;;;;;5073487;28;20024;-77
2022/11/22 06:07:59;;;;;;;9.40;2.70;;;6.00;99.90;;;;;;5073194;28;20058;-77
2022/11/22 06:10:25;;;;;;;11.75;2.75;;;6.00;99.90;;;;;;5073308;28;20035;-78
2022/11/22 06:12:52;;;;;;;9.60;2.90;;;6.20;99.90;;;;;;5072512;28;20035;-77
2022/11/22 06:15:17;;;;;;;14.52;4.00;;;6.20;99.90;;;;;;5073479;28;20026;-77
2022/11/22 06:17:43;;;;;;;14.43;2.63;;;6.10;99.90;;;;;;5073223;28;20396;-77
2022/11/22 06:20:09;;;;;;;12.68;2.25;;;6.00;99.90;;;;;;5073401;28;20040;-77
2022/11/22 06:22:35;;;;;;;17.75;3.05;;;6.10;99.90;;;;;;5073877;28;20061;-77
2022/11/22 06:25:01;;;;;;;15.95;3.58;;;6.10;99.90;;;;;;5073015;28;20036;-77
2022/11/22 06:27:26;;;;;;;16.77;2.30;;;6.10;99.90;;;;;;5075251;28;20016;-77
2022/11/22 06:29:52;;;;;;;8.88;2.63;;;6.20;99.90;;;;;;5074274;28;20028;-77
2022/11/22 06:32:18;;;;;;;13.88;2.38;;;6.20;99.90;;;;;;5072501;28;20028;-77
2022/11/22 06:34:43;;;;;;;21.02;2.50;;;6.20;99.90;;;;;;5073151;28;20029;-77
2022/11/22 06:37:09;;;;;;;15.98;2.90;;;6.10;99.90;;;;;;5071753;28;20032;-77
2022/11/22 06:39:35;;;;;;;21.48;3.08;;;6.10;99.90;;;;;;5073126;28;20047;-77
2022/11/22 06:42:01;;;;;;;11.05;2.53;;;6.10;99.90;;;;;;5072219;28;20530;-77
2022/11/22 06:44:26;;;;;;;15.15;3.25;;;6.10;99.90;;;;;;5072907;28;20044;-77
2022/11/22 06:46:52;;;;;;;15.90;2.88;;;6.10;99.90;;;;;;5058927;28;20036;-78
2022/11/22 06:49:18;;;;;;;13.90;2.40;;;6.10;99.90;;;;;;5046589;28;20071;-78
2022/11/22 06:51:43;;;;;;;24.50;3.15;;;6.10;99.90;;;;;;5055379;28;20489;-78
2022/11/22 06:54:10;;;;;;;19.35;3.15;;;6.10;99.90;;;;;;5059100;28;20041;-77
2022/11/22 06:56:38;;;;;;;11.02;3.53;;;6.10;99.90;;;;;;5051286;28;20071;-78
2022/11/22 06:59:05;;;;;;;14.20;2.95;;;6.10;99.90;;;;;;5056371;28;20108;-78
2022/11/22 07:01:32;;;;;;;17.52;2.72;;;6.10;99.90;;;;;;5068172;28;20024;-77
2022/11/22 07:03:59;;;;;;;15.88;3.15;;;6.00;99.90;;;;;;5072192;28;20039;-77
2022/11/22 07:06:29;;;;;;;15.65;3.38;;;6.10;99.90;;;;;;5073433;28;20552;-77
2022/11/22 07:08:55;;;;;;;11.68;2.45;;;6.00;99.90;;;;;;5060748;28;20032;-77
2022/11/22 07:11:24;;;;;;;17.27;3.42;;;6.00;99.90;;;;;;5078603;28;20024;-76
2022/11/22 07:13:50;;;;;;;12.93;3.45;;;6.00;99.90;;;;;;5078853;28;20028;-77
2022/11/22 07:16:19;;;;;;;19.38;3.58;;;6.10;99.90;;;;;;5076403;28;20039;-77
2022/11/22 07:18:45;;;;;;;15.60;3.10;;;6.10;99.90;;;;;;5076934;28;20123;-77
2022/11/22 07:21:19;;;;;;;15.65;3.00;;;6.20;99.90;;;;;;5078199;28;20036;-77
2022/11/22 07:23:47;;;;;;;14.48;4.10;;;6.20;99.90;;;;;;5077960;28;20085;-76
2022/11/22 07:26:14;;;;;;;12.75;2.67;;;6.20;99.90;;;;;;5078492;28;20035;-76
2022/11/22 07:28:40;;;;;;;11.00;3.00;;;6.10;99.90;;;;;;5078852;28;20028;-76
2022/11/22 07:31:08;;;;;;;16.67;3.63;;;6.10;99.90;;;;;;5078371;28;20071;-73
2022/11/22 07:33:34;;;;;;;17.35;3.85;;;6.20;99.90;;;;;;5077429;28;20032;-77
2022/11/22 07:36:11;;;;;;;14.93;3.65;;;6.20;99.90;;;;;;5078123;28;20494;-76
2022/11/22 07:38:37;;;;;;;14.15;2.80;;;6.30;99.90;;;;;;5078016;28;20024;-77
2022/11/22 07:41:04;;;;;;;16.77;3.10;;;6.20;99.90;;;;;;5077593;28;20033;-76
2022/11/22 07:43:30;;;;;;;11.10;3.55;;;6.20;99.90;;;;;;5072748;28;20048;-77
2022/11/22 07:46:04;;;;;;;12.70;3.00;;;6.20;99.90;;;;;;5059720;28;20086;-78
2022/11/22 07:48:30;;;;;;;12.65;3.58;;;6.30;99.90;;;;;;5051727;28;20033;-78
2022/11/22 07:50:56;;;;;;;17.40;4.50;;;6.30;99.90;;;;;;5059065;28;20024;-78
2022/11/22 07:53:22;;;;;;;19.10;3.08;;;6.30;99.90;;;;;;5062929;28;20095;-78
2022/11/22 07:55:47;;;;;;;12.98;3.03;;;6.20;99.90;;;;;;5060873;28;20055;-77
2022/11/22 07:58:13;;;;;;;12.57;3.13;;;6.30;99.90;;;;;;5062953;28;20032;-78
2022/11/22 08:00:39;;;;;;;17.77;3.17;;;6.30;99.90;;;;;;5067969;28;20082;-78
2022/11/22 08:03:07;;;;;;;16.33;3.53;;;6.30;99.90;;;;;;5077790;28;20030;-78
2022/11/22 08:05:33;;;;;;;11.77;2.95;;;6.40;99.90;;;;;;5077831;28;20037;-78
2022/11/22 08:07:59;;;;;;;13.02;3.08;;;6.40;99.90;;;;;;5076826;28;20017;-78
2022/11/22 08:10:24;;;;;;;12.88;2.58;;;6.40;99.90;;;;;;5076548;28;20025;-78
2022/11/22 08:12:50;;;;;;;13.68;2.40;;;6.40;99.90;;;;;;5077883;28;20024;-78
2022/11/22 08:15:16;;;;;;;8.88;2.67;;;6.40;99.90;;;;;;5076487;28;20028;-78
2022/11/22 08:17:42;;;;;;;14.85;3.35;;;6.40;99.90;;;;;;5074209;28;20077;-78
2022/11/22 08:20:08;;;;;;;13.95;3.08;;;6.50;99.90;;;;;;5073026;28;20028;-77
2022/11/22 08:22:36;;;;;;;14.07;2.40;;;6.50;99.90;;;;;;5070044;28;20035;-78
2022/11/22 08:25:02;;;;;;;14.20;3.38;;;6.50;99.90;;;;;;5062713;28;20500;-78
2022/11/22 08:27:28;;;;;;;11.45;2.58;;;6.50;99.90;;;;;;5059428;28;20020;-78
2022/11/22 08:29:53;;;;;;;14.35;2.78;;;6.50;99.90;;;;;;5056653;28;20416;-78
2022/11/22 08:32:19;;;;;;;11.65;2.92;;;6.50;99.90;;;;;;5056468;28;20071;-78
2022/11/22 08:34:45;;;;;;;11.27;3.20;;;6.50;99.90;;;;;;5063669;28;20028;-78
2022/11/22 08:37:10;;;;;;;10.40;2.47;;;6.50;99.90;;;;;;5054567;28;20484;-78
2022/11/22 08:39:36;;;;;;;17.73;3.50;;;6.50;99.90;;;;;;5058585;28;20045;-78
2022/11/22 08:42:02;;;;;;;10.82;3.00;;;6.50;99.90;;;;;;5045105;28;20036;-77
2022/11/22 08:44:28;;;;;;;11.70;2.90;;;6.60;99.90;;;;;;5055471;28;20036;-78
2022/11/22 08:46:53;;;;;;;8.18;2.30;;;6.70;99.90;;;;;;5058371;28;20067;-78
2022/11/22 08:49:19;;;;;;;10.32;2.72;;;6.70;99.90;;;;;;5059313;28;20021;-78
2022/11/22 08:51:45;;;;;;;9.65;2.58;;;6.70;99.90;;;;;;5054856;28;20028;-77
2022/11/22 08:54:13;;;;;;;11.43;2.80;;;6.80;99.90;;;;;;5056505;28;20112;-78
2022/11/22 08:56:39;;;;;;;13.43;2.38;;;6.80;99.90;;;;;;5054217;28;20028;-80
2022/11/22 08:59:05;;;;;;;5.90;2.20;;;6.80;99.90;;;;;;5059163;28;20131;-77
2022/11/22 09:01:31;;;;;;;10.77;3.20;;;6.90;99.90;;;;;;5069614;28;20031;-78
2022/11/22 09:03:57;;;;;;;11.52;2.70;;;6.90;99.90;;;;;;5067550;28;20024;-78
2022/11/22 09:06:23;;;;;;;14.52;2.63;;;6.90;99.90;;;;;;5073362;28;20384;-77
2022/11/22 09:08:49;;;;;;;19.40;3.95;;;6.90;99.90;;;;;;5073652;28;20381;-78
2022/11/22 09:11:17;;;;;;;15.27;2.45;;;7.00;99.90;;;;;;5063255;28;20036;-77
2022/11/22 09:13:44;;;;;;;4.25;2.10;;;7.00;99.90;;;;;;5073167;28;20100;-79
2022/11/22 09:16:12;;;;;;;8.88;2.30;;;7.10;99.90;;;;;;5072678;28;20127;-78
2022/11/22 09:18:38;;;;;;;11.30;3.03;;;7.10;99.90;;;;;;5070098;28;20033;-80
2022/11/22 09:21:07;;;;;;;6.80;2.13;;;7.30;99.90;;;;;;5058296;28;20059;-80
2022/11/22 09:23:33;;;;;;;13.60;3.33;;;7.10;99.90;;;;;;5054201;28;20033;-79
2022/11/22 09:26:10;;;;;;;15.98;3.15;;;7.30;99.90;;;;;;5063509;28;20026;-77
2022/11/22 09:28:37;;;;;;;16.27;3.00;;;7.30;99.90;;;;;;5050570;28;20035;-79
2022/11/22 09:31:10;;;;;;;11.82;2.80;;;7.30;99.90;;;;;;5048816;28;20107;-79
2022/11/22 09:33:38;;;;;;;9.48;1.95;;;7.20;99.90;;;;;;5055720;28;20033;-79
2022/11/22 09:36:12;;;;;;;7.32;2.92;;;7.30;99.90;;;;;;5053311;28;20082;-78
2022/11/22 09:38:39;;;;;;;12.75;2.95;;;7.30;99.90;;;;;;5060258;28;20082;-77
2022/11/22 09:41:22;;;;;;;11.10;2.50;;;7.30;99.90;;;;;;5056970;28;20033;-77
2022/11/22 09:44:17;;;;;;;8.15;2.63;;;7.30;99.90;;;;;;5058170;28;20352;-77
2022/11/22 09:47:24;;;;;;;7.45;2.55;;;7.30;99.90;;;;;;5054791;28;20037;-77
2022/11/22 09:49:59;;;;;;;10.18;3.00;;;7.40;99.90;;;;;;5064946;28;20539;-77
2022/11/22 09:52:34;;;;;;;11.27;2.50;;;7.40;99.90;;;;;;5060293;28;20024;-77
2022/11/22 09:55:28;;;;;;;10.40;2.33;;;7.40;99.90;;;;;;5055558;28;20468;-77
2022/11/22 09:58:11;;;;;;;10.82;2.70;;;7.50;99.90;;;;;;5055529;28;20520;-76
2022/11/22 10:00:39;;;;;;;10.90;2.70;;;7.50;99.90;;;;;;5044016;28;20492;-78
2022/11/22 10:03:11;;;;;;;10.52;2.88;;;7.70;99.90;;;;;;5049650;28;20032;-79
2022/11/22 10:05:49;;;;;;;7.65;2.13;;;7.70;99.90;;;;;;5051793;28;20033;-79
2022/11/22 10:08:31;;;;;;;6.30;1.80;;;7.70;99.90;;;;;;5055026;28;20033;-78
2022/11/22 10:10:59;;;;;;;8.25;2.10;;;7.70;99.90;;;;;;5062610;28;20098;-79
2022/11/22 10:13:30;;;;;;;7.68;2.13;;;7.70;99.90;;;;;;5063520;28;20017;-79
2022/11/22 10:16:20;;;;;;;10.00;2.50;;;7.60;99.90;;;;;;5061558;28;20061;-79
2022/11/22 10:19:07;;;;;;;13.77;2.17;;;7.60;99.90;;;;;;5053875;28;20432;-79
2022/11/22 10:21:33;;;;;;;4.30;1.55;;;7.60;99.90;;;;;;5053389;28;20047;-79
2022/11/22 10:23:58;;;;;;;6.90;1.95;;;7.70;99.90;;;;;;5065752;28;20025;-79
2022/11/22 10:26:27;;;;;;;9.50;2.33;;;7.80;99.90;;;;;;5064588;28;20025;-74
2022/11/22 10:29:36;;;;;;;6.53;2.10;;;7.80;99.90;;;;;;5055820;28;20469;-78
2022/11/22 10:32:12;;;;;;;6.25;2.20;;;7.70;99.90;;;;;;5048137;28;20037;-78
2022/11/22 10:35:03;;;;;;;6.93;1.40;;;7.60;99.90;;;;;;5048101;28;20041;-77
2022/11/22 10:37:49;;;;;;;5.32;1.63;;;7.60;99.90;;;;;;5046471;28;20497;-77
2022/11/22 10:40:40;;;;;;;5.90;1.48;;;7.70;99.90;;;;;;5041988;28;20033;-77
2022/11/22 10:43:31;;;;;;;5.00;1.60;;;7.80;99.90;;;;;;5045138;28;20082;-77
2022/11/22 10:46:36;;;;;;;5.10;2.17;;;7.70;99.90;;;;;;5052259;28;20047;-78
2022/11/22 10:49:09;;;;;;;5.93;1.48;;;7.80;99.90;;;;;;5060281;28;20032;-77
2022/11/22 10:52:00;;;;;;;5.88;1.92;;;7.70;99.90;;;;;;5053558;28;20075;-77
2022/11/22 10:54:30;;;;;;;16.20;2.23;;;7.80;99.90;;;;;;5051940;28;20521;-77
2022/11/22 10:57:06;;;;;;;3.72;2.05;;;7.90;99.90;;;;;;5051761;28;20779;-75
2022/11/22 10:59:53;;;;;;;8.68;2.03;;;8.00;99.90;;;;;;5059907;28;20545;-77
2022/11/22 11:02:50;;;;;;;5.38;1.73;;;8.00;99.90;;;;;;5051191;28;20016;-76
2022/11/22 11:05:19;;;;;;;3.20;1.40;;;8.20;99.90;;;;;;5071639;28;20024;-76
2022/11/22 11:07:49;;;;;;;4.70;1.70;;;8.00;99.90;;;;;;5071327;28;20047;-76
2022/11/22 11:10:25;;;;;;;6.80;1.77;;;7.90;99.90;;;;;;5068687;28;20500;-76
2022/11/22 11:12:57;;;;;;;10.18;1.65;;;8.00;99.90;;;;;;5049024;28;20029;-77
2022/11/22 11:15:45;;;;;;;4.70;1.77;;;7.90;99.90;;;;;;5049010;28;20041;-77
2022/11/22 11:18:49;;;;;;;6.55;1.90;;;8.00;99.90;;;;;;5049518;28;20071;-77
2022/11/22 11:21:15;;;;;;;2.95;1.42;;;8.00;99.90;;;;;;5045324;28;20048;-77
2022/11/22 11:23:41;;;;;;;3.42;1.52;;;8.10;99.90;;;;;;5054435;28;20029;-76
2022/11/22 11:26:22;;;;;;;5.53;1.70;;;8.10;99.90;;;;;;5053290;28;20488;-77
2022/11/22 11:28:48;;;;;;;5.15;1.52;;;8.20;99.90;;;;;;5059013;28;20456;-77
2022/11/22 11:31:17;;;;;;;6.40;1.45;;;8.20;99.90;;;;;;5054245;28;20044;-76
2022/11/22 11:33:44;;;;;;;11.35;1.90;;;8.20;99.90;;;;;;5051623;28;20370;-78
2022/11/22 11:36:17;;;;;;;11.90;2.65;;;8.20;99.90;;;;;;5056280;28;20107;-75
2022/11/22 11:38:43;;;;;;;3.03;1.48;;;8.20;99.90;;;;;;5062934;28;20477;-76
2022/11/22 11:41:19;;;;;;;6.30;1.40;;;8.10;99.90;;;;;;5055635;28;20021;-77
2022/11/22 11:43:45;;;;;;;3.45;1.40;;;8.10;99.90;;;;;;5053493;28;20469;-75
2022/11/22 11:46:19;;;;;;;5.50;1.75;;;8.00;99.90;;;;;;5054337;28;20028;-76
2022/11/22 11:48:46;;;;;;;5.40;1.38;;;8.00;99.90;;;;;;5058366;28;20037;-76
2022/11/22 11:51:18;;;;;;;9.50;1.50;;;8.00;99.90;;;;;;5046941;28;20095;-76
2022/11/22 11:53:54;;;;;;;11.63;2.22;;;8.10;99.90;;;;;;5054066;28;20534;-77
2022/11/22 11:57:00;;;;;;;2.92;1.13;;;8.10;99.90;;;;;;5052939;28;20025;-76
2022/11/22 11:59:38;;;;;;;3.00;1.02;;;8.10;99.90;;;;;;5038033;28;20116;-73
2022/11/22 12:02:19;;;;;;;5.25;1.23;;;8.20;99.90;;;;;;5059649;28;20855;-74
2022/11/22 12:04:54;;;;;;;6.40;1.92;;;8.20;99.90;;;;;;5074223;28;20079;-75
2022/11/22 12:07:32;;;;;;;4.47;1.75;;;8.20;99.90;;;;;;5075662;28;20495;-77
2022/11/22 12:09:58;;;;;;;3.38;1.63;;;8.10;99.90;;;;;;5074058;28;20060;-76
2022/11/22 12:12:45;;;;;;;4.40;1.38;;;7.90;99.90;;;;;;5075624;28;20099;-77
2022/11/22 12:15:56;;;;;;;4.35;1.95;;;8.00;99.90;;;;;;5073917;28;20025;-77
2022/11/22 12:18:31;;;;;;;6.90;2.10;;;8.00;99.90;;;;;;5056174;28;20047;-76
2022/11/22 12:21:16;;;;;;;3.63;1.88;;;8.10;99.90;;;;;;5072618;28;20052;-77
2022/11/22 12:24:01;;;;;;;3.05;1.38;;;8.00;99.90;;;;;;5074765;28;20063;-77
2022/11/22 12:26:28;;;;;;;5.68;2.30;;;8.10;99.90;;;;;;5075379;28;20038;-77
2022/11/22 12:28:56;;;;;;;4.50;1.65;;;8.20;99.90;;;;;;5074790;28;20117;-77
2022/11/22 12:31:42;;;;;;;5.70;1.60;;;8.40;99.90;;;;;;5057099;28;20043;-75
2022/11/22 12:34:26;;;;;;;2.70;1.35;;;8.50;99.90;;;;;;5074500;28;20476;-75
2022/11/22 12:37:14;;;;;;;8.50;1.88;;;8.40;99.90;;;;;;5073406;28;20036;-75
2022/11/22 12:39:47;;;;;;;2.45;1.00;;;8.50;99.90;;;;;;5073645;28;20098;-76
2022/11/22 12:42:15;;;;;;;3.28;1.20;;;8.60;99.90;;;;;;5073794;28;20150;-76
2022/11/22 12:44:47;;;;;;;2.97;1.20;;;8.50;99.90;;;;;;5073558;28;20032;-76
2022/11/22 12:47:19;;;;;;;4.68;1.55;;;8.60;99.90;;;;;;5074778;28;20043;-76
2022/11/22 12:49:50;;;;;;;;;;;8.50;99.90;;;;;;5075023;28;20392;-77
2022/11/22 12:52:31;;;;;;;2.50;1.33;;;8.50;99.90;;;;;;5074932;28;19908;-77
2022/11/22 12:55:23;;;;;;;3.38;1.50;;;8.50;99.90;;;;;;5074749;28;20040;-74
2022/11/22 12:57:55;;;;;;;6.43;1.48;;;8.60;99.90;;;;;;5074717;28;20171;-75
2022/11/22 13:00:23;;;;;;;8.32;1.77;;;8.60;99.90;;;;;;5074420;28;20028;-75
2022/11/22 13:03:04;;;;;;;3.65;1.25;;;8.70;99.90;;;;;;5074463;28;20021;-75
2022/11/22 13:05:53;;;;;;;6.28;1.33;;;8.90;99.90;;;;;;5072246;28;20036;-78
2022/11/22 13:08:37;;;;;;;2.28;1.33;;;8.90;99.90;;;;;;5056590;28;20396;-76
2022/11/22 13:11:26;;;;;;;1.63;1.05;;;8.90;99.90;;;;;;5073250;28;20043;-75
2022/11/22 13:14:21;;;;;;;4.82;1.25;;;8.90;99.90;;;;;;5074507;28;20481;-76
2022/11/22 13:16:49;;;;;;;1.88;1.00;;;8.80;99.90;;;;;;5073717;28;20513;-76
2022/11/22 13:19:16;;;;;;;7.25;1.20;;;8.90;99.90;;;;;;5074446;28;20489;-76
2022/11/22 13:22:18;;;;;;;4.57;1.48;;;8.80;99.90;;;;;;5074243;28;20429;-76